sensor_id;sensor_type;location;lat;lon;timestamp;P1;durP1;ratioP1;P2;durP2;ratioP2
6093;SDS011;19964;42.060;24.700;2023-05-18T00:00:15;7.00;;;4.70;;
6093;SDS011;19964;42.060;24.700;2023-05-18T00:02:43;10.80;;;4.87;;
6093;SDS011;19964;42.060;24.700;2023-05-18T00:05:12;13.77;;;5.13;;
6093;SDS011;19964;42.060;24.700;2023-05-18T00:07:40;11.77;;;5.10;;
6093;SDS011;19964;42.060;24.700;2023-05-18T00:10:08;5.97;;;4.47;;
6093;SDS011;19964;42.060;24.700;2023-05-18T00:12:35;11.30;;;5.27;;
6093;SDS011;19964;42.060;24.700;2023-05-18T00:15:02;7.50;;;6.50;;
6093;SDS011;19964;42.060;24.700;2023-05-18T00:17:30;7.87;;;4.73;;
6093;SDS011;19964;42.060;24.700;2023-05-18T00:19:57;11.23;;;5.43;;
6093;SDS011;19964;42.060;24.700;2023-05-18T00:22:24;9.63;;;5.00;;
6093;SDS011;19964;42.060;24.700;2023-05-18T00:24:53;8.27;;;5.00;;
6093;SDS011;19964;42.060;24.700;2023-05-18T00:27:19;8.20;;;4.83;;
6093;SDS011;19964;42.060;24.700;2023-05-18T00:29:46;8.80;;;4.83;;
6093;SDS011;19964;42.060;24.700;2023-05-18T00:32:13;8.57;;;4.80;;
6093;SDS011;19964;42.060;24.700;2023-05-18T00:34:40;8.87;;;4.70;;
6093;SDS011;19964;42.060;24.700;2023-05-18T00:37:07;11.17;;;4.70;;
6093;SDS011;19964;42.060;24.700;2023-05-18T00:39:33;6.23;;;4.60;;
6093;SDS011;19964;42.060;24.700;2023-05-18T00:42:02;7.43;;;4.70;;
6093;SDS011;19964;42.060;24.700;2023-05-18T00:44:29;7.50;;;4.60;;
6093;SDS011;19964;42.060;24.700;2023-05-18T00:46:55;7.07;;;4.90;;
6093;SDS011;19964;42.060;24.700;2023-05-18T00:49:24;12.13;;;5.00;;
6093;SDS011;19964;42.060;24.700;2023-05-18T00:51:51;11.73;;;5.23;;
6093;SDS011;19964;42.060;24.700;2023-05-18T00:54:19;9.70;;;5.43;;
6093;SDS011;19964;42.060;24.700;2023-05-18T00:56:46;7.27;;;5.27;;
6093;SDS011;19964;42.060;24.700;2023-05-18T00:59:15;7.87;;;5.23;;
6093;SDS011;19964;42.060;24.700;2023-05-18T01:01:42;16.87;;;6.50;;
6093;SDS011;19964;42.060;24.700;2023-05-18T01:04:11;11.50;;;5.80;;
6093;SDS011;19964;42.060;24.700;2023-05-18T01:06:39;12.23;;;5.37;;
6093;SDS011;19964;42.060;24.700;2023-05-18T01:09:08;10.90;;;5.43;;
6093;SDS011;19964;42.060;24.700;2023-05-18T01:11:39;9.13;;;5.67;;
6093;SDS011;19964;42.060;24.700;2023-05-18T01:14:19;11.43;;;5.23;;
6093;SDS011;19964;42.060;24.700;2023-05-18T01:16:53;8.53;;;4.97;;
6093;SDS011;19964;42.060;24.700;2023-05-18T01:28:27;12.23;;;4.60;;
6093;SDS011;19964;42.060;24.700;2023-05-18T01:30:57;11.53;;;4.60;;
6093;SDS011;19964;42.060;24.700;2023-05-18T01:33:24;8.87;;;5.30;;
6093;SDS011;19964;42.060;24.700;2023-05-18T01:35:51;11.57;;;5.00;;
6093;SDS011;19964;42.060;24.700;2023-05-18T01:38:18;12.07;;;4.37;;
6093;SDS011;19964;42.060;24.700;2023-05-18T01:40:53;10.93;;;5.10;;
6093;SDS011;19964;42.060;24.700;2023-05-18T01:43:27;12.33;;;4.57;;
6093;SDS011;19964;42.060;24.700;2023-05-18T01:45:59;6.83;;;4.77;;
6093;SDS011;19964;42.060;24.700;2023-05-18T01:48:30;7.23;;;5.03;;
6093;SDS011;19964;42.060;24.700;2023-05-18T01:51:03;7.07;;;4.47;;
6093;SDS011;19964;42.060;24.700;2023-05-18T01:53:38;7.77;;;4.73;;
6093;SDS011;19964;42.060;24.700;2023-05-18T01:56:11;13.33;;;4.67;;
6093;SDS011;19964;42.060;24.700;2023-05-18T01:58:40;7.43;;;4.20;;
6093;SDS011;19964;42.060;24.700;2023-05-18T02:01:08;6.37;;;4.30;;
6093;SDS011;19964;42.060;24.700;2023-05-18T02:03:35;11.33;;;4.80;;
6093;SDS011;19964;42.060;24.700;2023-05-18T02:06:02;6.13;;;4.30;;
6093;SDS011;19964;42.060;24.700;2023-05-18T02:08:29;4.57;;;3.87;;
6093;SDS011;19964;42.060;24.700;2023-05-18T02:10:55;8.67;;;4.37;;
6093;SDS011;19964;42.060;24.700;2023-05-18T02:13:22;6.33;;;4.00;;
6093;SDS011;19964;42.060;24.700;2023-05-18T02:15:50;8.37;;;3.83;;
6093;SDS011;19964;42.060;24.700;2023-05-18T02:18:17;6.43;;;3.90;;
6093;SDS011;19964;42.060;24.700;2023-05-18T02:20:46;6.23;;;4.33;;
6093;SDS011;19964;42.060;24.700;2023-05-18T02:23:13;10.00;;;4.40;;
6093;SDS011;19964;42.060;24.700;2023-05-18T02:25:40;6.83;;;3.83;;
6093;SDS011;19964;42.060;24.700;2023-05-18T02:28:08;8.07;;;4.20;;
6093;SDS011;19964;42.060;24.700;2023-05-18T02:30:35;7.67;;;4.20;;
6093;SDS011;19964;42.060;24.700;2023-05-18T02:33:03;8.30;;;4.37;;
6093;SDS011;19964;42.060;24.700;2023-05-18T02:35:33;6.23;;;3.83;;
6093;SDS011;19964;42.060;24.700;2023-05-18T02:37:59;9.37;;;4.40;;
6093;SDS011;19964;42.060;24.700;2023-05-18T02:40:26;6.23;;;4.40;;
6093;SDS011;19964;42.060;24.700;2023-05-18T02:42:53;8.97;;;3.90;;
6093;SDS011;19964;42.060;24.700;2023-05-18T02:45:20;8.50;;;4.10;;
6093;SDS011;19964;42.060;24.700;2023-05-18T02:47:47;11.73;;;4.63;;
6093;SDS011;19964;42.060;24.700;2023-05-18T02:50:15;8.17;;;5.40;;
6093;SDS011;19964;42.060;24.700;2023-05-18T02:52:42;6.97;;;5.20;;
6093;SDS011;19964;42.060;24.700;2023-05-18T02:55:10;4.87;;;4.17;;
6093;SDS011;19964;42.060;24.700;2023-05-18T02:57:38;6.83;;;4.10;;
6093;SDS011;19964;42.060;24.700;2023-05-18T03:00:07;13.00;;;4.13;;
6093;SDS011;19964;42.060;24.700;2023-05-18T03:02:35;9.27;;;4.30;;
6093;SDS011;19964;42.060;24.700;2023-05-18T03:05:03;7.07;;;4.20;;
6093;SDS011;19964;42.060;24.700;2023-05-18T03:07:31;7.43;;;4.17;;
6093;SDS011;19964;42.060;24.700;2023-05-18T03:09:58;6.93;;;4.97;;
6093;SDS011;19964;42.060;24.700;2023-05-18T03:12:31;5.70;;;4.23;;
6093;SDS011;19964;42.060;24.700;2023-05-18T03:14:58;9.63;;;4.10;;
6093;SDS011;19964;42.060;24.700;2023-05-18T03:17:25;9.37;;;4.50;;
6093;SDS011;19964;42.060;24.700;2023-05-18T03:19:52;8.03;;;4.67;;
6093;SDS011;19964;42.060;24.700;2023-05-18T03:22:18;4.53;;;4.13;;
6093;SDS011;19964;42.060;24.700;2023-05-18T03:24:47;6.43;;;4.17;;
6093;SDS011;19964;42.060;24.700;2023-05-18T03:27:15;10.77;;;4.80;;
6093;SDS011;19964;42.060;24.700;2023-05-18T03:29:43;8.17;;;5.20;;
6093;SDS011;19964;42.060;24.700;2023-05-18T03:32:10;9.23;;;4.93;;
6093;SDS011;19964;42.060;24.700;2023-05-18T03:34:36;8.07;;;5.13;;
6093;SDS011;19964;42.060;24.700;2023-05-18T03:37:03;8.87;;;5.30;;
6093;SDS011;19964;42.060;24.700;2023-05-18T03:39:30;9.83;;;5.50;;
6093;SDS011;19964;42.060;24.700;2023-05-18T03:41:58;9.23;;;5.60;;
6093;SDS011;19964;42.060;24.700;2023-05-18T03:44:25;6.73;;;5.60;;
6093;SDS011;19964;42.060;24.700;2023-05-18T03:46:52;14.83;;;5.70;;
6093;SDS011;19964;42.060;24.700;2023-05-18T03:49:19;9.13;;;5.83;;
6093;SDS011;19964;42.060;24.700;2023-05-18T03:51:45;14.50;;;5.83;;
6093;SDS011;19964;42.060;24.700;2023-05-18T03:54:12;11.40;;;5.60;;
6093;SDS011;19964;42.060;24.700;2023-05-18T03:56:39;7.40;;;5.77;;
6093;SDS011;19964;42.060;24.700;2023-05-18T03:59:07;8.53;;;5.87;;
6093;SDS011;19964;42.060;24.700;2023-05-18T04:01:34;8.23;;;5.47;;
6093;SDS011;19964;42.060;24.700;2023-05-18T04:04:02;12.37;;;6.07;;
6093;SDS011;19964;42.060;24.700;2023-05-18T04:06:29;11.33;;;6.00;;
6093;SDS011;19964;42.060;24.700;2023-05-18T04:08:55;11.03;;;6.17;;
6093;SDS011;19964;42.060;24.700;2023-05-18T04:11:26;8.37;;;6.50;;
6093;SDS011;19964;42.060;24.700;2023-05-18T04:13:53;10.13;;;6.07;;
6093;SDS011;19964;42.060;24.700;2023-05-18T04:16:23;9.40;;;6.27;;
6093;SDS011;19964;42.060;24.700;2023-05-18T04:18:50;12.40;;;7.03;;
6093;SDS011;19964;42.060;24.700;2023-05-18T04:21:17;12.17;;;6.93;;
6093;SDS011;19964;42.060;24.700;2023-05-18T04:23:44;13.40;;;6.70;;
6093;SDS011;19964;42.060;24.700;2023-05-18T04:26:12;12.53;;;6.47;;
6093;SDS011;19964;42.060;24.700;2023-05-18T04:28:44;8.03;;;6.20;;
6093;SDS011;19964;42.060;24.700;2023-05-18T04:31:11;9.20;;;6.17;;
6093;SDS011;19964;42.060;24.700;2023-05-18T04:33:39;7.97;;;6.03;;
6093;SDS011;19964;42.060;24.700;2023-05-18T04:36:06;9.90;;;6.43;;
6093;SDS011;19964;42.060;24.700;2023-05-18T04:38:33;12.30;;;6.13;;
6093;SDS011;19964;42.060;24.700;2023-05-18T04:41:00;11.63;;;6.27;;
6093;SDS011;19964;42.060;24.700;2023-05-18T04:43:29;58.50;;;31.90;;
6093;SDS011;19964;42.060;24.700;2023-05-18T04:45:56;29.53;;;18.90;;
6093;SDS011;19964;42.060;24.700;2023-05-18T04:48:23;13.83;;;8.97;;
6093;SDS011;19964;42.060;24.700;2023-05-18T04:50:51;13.47;;;7.27;;
6093;SDS011;19964;42.060;24.700;2023-05-18T04:53:20;8.47;;;7.00;;
6093;SDS011;19964;42.060;24.700;2023-05-18T04:55:47;7.10;;;5.53;;
6093;SDS011;19964;42.060;24.700;2023-05-18T04:58:15;9.07;;;5.87;;
6093;SDS011;19964;42.060;24.700;2023-05-18T05:00:42;7.87;;;6.10;;
6093;SDS011;19964;42.060;24.700;2023-05-18T05:03:08;11.37;;;5.53;;
6093;SDS011;19964;42.060;24.700;2023-05-18T05:05:35;8.10;;;6.33;;
6093;SDS011;19964;42.060;24.700;2023-05-18T05:08:04;10.60;;;6.70;;
6093;SDS011;19964;42.060;24.700;2023-05-18T05:10:31;9.80;;;7.20;;
6093;SDS011;19964;42.060;24.700;2023-05-18T05:12:58;8.10;;;7.17;;
6093;SDS011;19964;42.060;24.700;2023-05-18T05:15:24;14.47;;;9.20;;
6093;SDS011;19964;42.060;24.700;2023-05-18T05:17:51;13.40;;;7.87;;
6093;SDS011;19964;42.060;24.700;2023-05-18T05:20:18;10.13;;;8.17;;
6093;SDS011;19964;42.060;24.700;2023-05-18T05:22:46;16.03;;;8.33;;
6093;SDS011;19964;42.060;24.700;2023-05-18T05:25:14;14.80;;;9.10;;
6093;SDS011;19964;42.060;24.700;2023-05-18T05:27:41;300.33;;;102.87;;
6093;SDS011;19964;42.060;24.700;2023-05-18T05:30:08;11.80;;;10.60;;
6093;SDS011;19964;42.060;24.700;2023-05-18T05:32:35;51.63;;;24.17;;
6093;SDS011;19964;42.060;24.700;2023-05-18T05:35:02;25.07;;;16.97;;
6093;SDS011;19964;42.060;24.700;2023-05-18T05:37:28;18.30;;;15.17;;
6093;SDS011;19964;42.060;24.700;2023-05-18T05:39:55;33.17;;;22.70;;
6093;SDS011;19964;42.060;24.700;2023-05-18T05:42:24;301.23;;;92.67;;
6093;SDS011;19964;42.060;24.700;2023-05-18T05:44:51;20.00;;;11.97;;
6093;SDS011;19964;42.060;24.700;2023-05-18T05:47:18;21.87;;;13.77;;
6093;SDS011;19964;42.060;24.700;2023-05-18T05:49:45;22.23;;;13.73;;
6093;SDS011;19964;42.060;24.700;2023-05-18T05:52:11;24.53;;;16.53;;
6093;SDS011;19964;42.060;24.700;2023-05-18T05:54:39;21.87;;;14.23;;
6093;SDS011;19964;42.060;24.700;2023-05-18T05:57:06;22.87;;;14.60;;
6093;SDS011;19964;42.060;24.700;2023-05-18T05:59:34;22.80;;;14.43;;
6093;SDS011;19964;42.060;24.700;2023-05-18T06:02:00;77.73;;;16.43;;
6093;SDS011;19964;42.060;24.700;2023-05-18T06:04:27;316.33;;;23.80;;
6093;SDS011;19964;42.060;24.700;2023-05-18T06:06:54;339.03;;;25.57;;
6093;SDS011;19964;42.060;24.700;2023-05-18T06:09:21;668.70;;;42.63;;
6093;SDS011;19964;42.060;24.700;2023-05-18T06:11:48;660.23;;;42.23;;
6093;SDS011;19964;42.060;24.700;2023-05-18T06:14:15;328.10;;;25.90;;
6093;SDS011;19964;42.060;24.700;2023-05-18T06:16:43;431.30;;;34.60;;
6093;SDS011;19964;42.060;24.700;2023-05-18T06:19:09;30.83;;;12.83;;
6093;SDS011;19964;42.060;24.700;2023-05-18T06:21:36;21.77;;;12.50;;
6093;SDS011;19964;42.060;24.700;2023-05-18T06:24:03;152.43;;;20.17;;
6093;SDS011;19964;42.060;24.700;2023-05-18T06:26:30;32.03;;;22.47;;
6093;SDS011;19964;42.060;24.700;2023-05-18T06:28:57;23.40;;;17.23;;
6093;SDS011;19964;42.060;24.700;2023-05-18T06:31:24;32.07;;;21.43;;
6093;SDS011;19964;42.060;24.700;2023-05-18T06:33:52;16.30;;;13.33;;
6093;SDS011;19964;42.060;24.700;2023-05-18T06:36:19;13.77;;;11.30;;
6093;SDS011;19964;42.060;24.700;2023-05-18T06:38:45;12.67;;;10.47;;
6093;SDS011;19964;42.060;24.700;2023-05-18T06:41:12;14.27;;;12.80;;
6093;SDS011;19964;42.060;24.700;2023-05-18T06:43:39;12.80;;;9.83;;
6093;SDS011;19964;42.060;24.700;2023-05-18T06:46:06;17.47;;;14.07;;
6093;SDS011;19964;42.060;24.700;2023-05-18T06:48:33;13.40;;;10.33;;
6093;SDS011;19964;42.060;24.700;2023-05-18T06:51:04;10.47;;;9.43;;
6093;SDS011;19964;42.060;24.700;2023-05-18T06:53:30;14.07;;;11.67;;
6093;SDS011;19964;42.060;24.700;2023-05-18T06:55:57;7.80;;;7.10;;
6093;SDS011;19964;42.060;24.700;2023-05-18T06:58:24;10.30;;;9.17;;
6093;SDS011;19964;42.060;24.700;2023-05-18T07:00:51;13.63;;;10.23;;
6093;SDS011;19964;42.060;24.700;2023-05-18T07:03:18;10.43;;;9.33;;
6093;SDS011;19964;42.060;24.700;2023-05-18T07:05:45;9.00;;;7.97;;
6093;SDS011;19964;42.060;24.700;2023-05-18T07:08:13;6.90;;;6.27;;
6093;SDS011;19964;42.060;24.700;2023-05-18T07:10:39;7.30;;;6.60;;
6093;SDS011;19964;42.060;24.700;2023-05-18T07:13:06;7.33;;;6.63;;
6093;SDS011;19964;42.060;24.700;2023-05-18T07:15:33;7.43;;;6.60;;
6093;SDS011;19964;42.060;24.700;2023-05-18T07:18:00;10.07;;;8.90;;
6093;SDS011;19964;42.060;24.700;2023-05-18T07:20:26;12.67;;;10.50;;
6093;SDS011;19964;42.060;24.700;2023-05-18T07:22:53;10.30;;;7.80;;
6093;SDS011;19964;42.060;24.700;2023-05-18T07:25:22;9.83;;;8.10;;
6093;SDS011;19964;42.060;24.700;2023-05-18T07:27:49;120.67;;;39.83;;
6093;SDS011;19964;42.060;24.700;2023-05-18T07:30:17;12.40;;;9.37;;
6093;SDS011;19964;42.060;24.700;2023-05-18T07:32:43;8.80;;;7.90;;
6093;SDS011;19964;42.060;24.700;2023-05-18T07:35:10;10.97;;;8.53;;
6093;SDS011;19964;42.060;24.700;2023-05-18T07:37:37;9.03;;;8.00;;
6093;SDS011;19964;42.060;24.700;2023-05-18T07:40:04;205.03;;;95.67;;
6093;SDS011;19964;42.060;24.700;2023-05-18T07:42:35;7.40;;;6.80;;
6093;SDS011;19964;42.060;24.700;2023-05-18T07:45:03;9.97;;;9.03;;
6093;SDS011;19964;42.060;24.700;2023-05-18T07:47:30;8.30;;;6.57;;
6093;SDS011;19964;42.060;24.700;2023-05-18T07:49:57;7.87;;;7.13;;
6093;SDS011;19964;42.060;24.700;2023-05-18T07:52:24;18.13;;;13.17;;
6093;SDS011;19964;42.060;24.700;2023-05-18T07:54:51;10.70;;;8.97;;
6093;SDS011;19964;42.060;24.700;2023-05-18T07:57:18;19.43;;;13.53;;
6093;SDS011;19964;42.060;24.700;2023-05-18T07:59:46;12.27;;;8.77;;
6093;SDS011;19964;42.060;24.700;2023-05-18T08:02:13;13.77;;;8.10;;
6093;SDS011;19964;42.060;24.700;2023-05-18T08:04:41;8.77;;;7.93;;
6093;SDS011;19964;42.060;24.700;2023-05-18T08:07:08;8.00;;;6.83;;
6093;SDS011;19964;42.060;24.700;2023-05-18T08:09:36;8.07;;;7.00;;
6093;SDS011;19964;42.060;24.700;2023-05-18T08:12:03;8.47;;;6.40;;
6093;SDS011;19964;42.060;24.700;2023-05-18T08:14:30;9.57;;;6.33;;
6093;SDS011;19964;42.060;24.700;2023-05-18T08:16:59;7.03;;;5.50;;
6093;SDS011;19964;42.060;24.700;2023-05-18T08:19:25;11.63;;;6.87;;
6093;SDS011;19964;42.060;24.700;2023-05-18T08:21:52;9.23;;;5.20;;
6093;SDS011;19964;42.060;24.700;2023-05-18T08:24:19;9.80;;;8.07;;
6093;SDS011;19964;42.060;24.700;2023-05-18T08:26:46;53.23;;;20.87;;
6093;SDS011;19964;42.060;24.700;2023-05-18T08:29:12;8.00;;;7.27;;
6093;SDS011;19964;42.060;24.700;2023-05-18T08:31:39;6.43;;;5.83;;
6093;SDS011;19964;42.060;24.700;2023-05-18T08:34:07;6.70;;;6.10;;
6093;SDS011;19964;42.060;24.700;2023-05-18T08:36:34;7.43;;;6.37;;
6093;SDS011;19964;42.060;24.700;2023-05-18T08:39:02;8.23;;;5.00;;
6093;SDS011;19964;42.060;24.700;2023-05-18T08:41:31;274.37;;;114.50;;
6093;SDS011;19964;42.060;24.700;2023-05-18T08:44:01;4.40;;;4.00;;
6093;SDS011;19964;42.060;24.700;2023-05-18T08:46:32;5.20;;;4.70;;
6093;SDS011;19964;42.060;24.700;2023-05-18T08:49:00;4.40;;;4.00;;
6093;SDS011;19964;42.060;24.700;2023-05-18T08:51:32;4.60;;;3.60;;
6093;SDS011;19964;42.060;24.700;2023-05-18T08:54:00;3.80;;;3.33;;
6093;SDS011;19964;42.060;24.700;2023-05-18T08:56:28;4.33;;;3.80;;
6093;SDS011;19964;42.060;24.700;2023-05-18T08:58:57;6.43;;;3.90;;
6093;SDS011;19964;42.060;24.700;2023-05-18T09:01:25;8.63;;;4.73;;
6093;SDS011;19964;42.060;24.700;2023-05-18T09:03:53;5.30;;;4.87;;
6093;SDS011;19964;42.060;24.700;2023-05-18T09:06:20;5.00;;;4.60;;
6093;SDS011;19964;42.060;24.700;2023-05-18T09:08:50;4.83;;;4.23;;
6093;SDS011;19964;42.060;24.700;2023-05-18T09:11:18;5.87;;;5.37;;
6093;SDS011;19964;42.060;24.700;2023-05-18T09:13:47;13.67;;;8.10;;
6093;SDS011;19964;42.060;24.700;2023-05-18T09:16:14;95.63;;;32.00;;
6093;SDS011;19964;42.060;24.700;2023-05-18T09:18:41;36.47;;;16.13;;
6093;SDS011;19964;42.060;24.700;2023-05-18T09:21:08;11.73;;;7.17;;
6093;SDS011;19964;42.060;24.700;2023-05-18T09:23:37;4.30;;;3.90;;
6093;SDS011;19964;42.060;24.700;2023-05-18T09:26:06;5.00;;;3.73;;
6093;SDS011;19964;42.060;24.700;2023-05-18T09:28:34;3.37;;;3.10;;
6093;SDS011;19964;42.060;24.700;2023-05-18T09:31:02;3.10;;;2.87;;
6093;SDS011;19964;42.060;24.700;2023-05-18T09:33:31;3.20;;;3.00;;
6093;SDS011;19964;42.060;24.700;2023-05-18T09:35:59;3.27;;;2.93;;
6093;SDS011;19964;42.060;24.700;2023-05-18T09:38:26;3.17;;;2.87;;
6093;SDS011;19964;42.060;24.700;2023-05-18T09:40:53;7.27;;;3.73;;
6093;SDS011;19964;42.060;24.700;2023-05-18T09:43:21;9.73;;;6.43;;
6093;SDS011;19964;42.060;24.700;2023-05-18T09:45:48;6.60;;;3.20;;
6093;SDS011;19964;42.060;24.700;2023-05-18T09:48:15;4.57;;;3.50;;
6093;SDS011;19964;42.060;24.700;2023-05-18T09:50:42;3.53;;;3.27;;
6093;SDS011;19964;42.060;24.700;2023-05-18T09:53:11;3.37;;;3.03;;
6093;SDS011;19964;42.060;24.700;2023-05-18T09:55:43;3.70;;;3.20;;
6093;SDS011;19964;42.060;24.700;2023-05-18T09:58:11;6.17;;;3.60;;
6093;SDS011;19964;42.060;24.700;2023-05-18T10:00:41;5.87;;;4.03;;
6093;SDS011;19964;42.060;24.700;2023-05-18T10:03:15;4.17;;;3.10;;
6093;SDS011;19964;42.060;24.700;2023-05-18T10:05:43;5.73;;;3.87;;
6093;SDS011;19964;42.060;24.700;2023-05-18T10:08:11;5.37;;;3.63;;
6093;SDS011;19964;42.060;24.700;2023-05-18T10:10:39;4.33;;;3.80;;
6093;SDS011;19964;42.060;24.700;2023-05-18T10:13:11;5.10;;;3.37;;
6093;SDS011;19964;42.060;24.700;2023-05-18T10:15:46;4.50;;;3.43;;
6093;SDS011;19964;42.060;24.700;2023-05-18T10:18:18;3.53;;;3.30;;
6093;SDS011;19964;42.060;24.700;2023-05-18T10:20:47;6.90;;;3.87;;
6093;SDS011;19964;42.060;24.700;2023-05-18T10:23:16;3.53;;;3.20;;
6093;SDS011;19964;42.060;24.700;2023-05-18T10:25:44;5.50;;;3.60;;
6093;SDS011;19964;42.060;24.700;2023-05-18T10:28:11;3.53;;;3.00;;
6093;SDS011;19964;42.060;24.700;2023-05-18T10:30:44;6.60;;;3.30;;
6093;SDS011;19964;42.060;24.700;2023-05-18T10:33:13;8.00;;;3.40;;
6093;SDS011;19964;42.060;24.700;2023-05-18T10:35:42;2.97;;;2.50;;
6093;SDS011;19964;42.060;24.700;2023-05-18T10:38:14;3.87;;;2.90;;
6093;SDS011;19964;42.060;24.700;2023-05-18T10:40:45;4.20;;;2.90;;
6093;SDS011;19964;42.060;24.700;2023-05-18T10:43:14;7.27;;;3.10;;
6093;SDS011;19964;42.060;24.700;2023-05-18T10:45:45;2.70;;;2.50;;
6093;SDS011;19964;42.060;24.700;2023-05-18T10:48:19;2.60;;;2.40;;
6093;SDS011;19964;42.060;24.700;2023-05-18T10:50:47;3.00;;;2.80;;
6093;SDS011;19964;42.060;24.700;2023-05-18T10:53:15;3.20;;;2.50;;
6093;SDS011;19964;42.060;24.700;2023-05-18T10:55:43;3.30;;;3.00;;
6093;SDS011;19964;42.060;24.700;2023-05-18T10:58:11;12.40;;;8.47;;
6093;SDS011;19964;42.060;24.700;2023-05-18T11:00:41;3.70;;;3.40;;
6093;SDS011;19964;42.060;24.700;2023-05-18T11:03:12;9.73;;;3.37;;
6093;SDS011;19964;42.060;24.700;2023-05-18T11:05:41;3.10;;;2.90;;
6093;SDS011;19964;42.060;24.700;2023-05-18T11:08:08;9.57;;;6.67;;
6093;SDS011;19964;42.060;24.700;2023-05-18T11:10:39;4.53;;;3.53;;
6093;SDS011;19964;42.060;24.700;2023-05-18T11:13:06;3.27;;;2.97;;
6093;SDS011;19964;42.060;24.700;2023-05-18T11:18:43;8.80;;;3.20;;
6093;SDS011;19964;42.060;24.700;2023-05-18T11:21:18;5.23;;;3.40;;
6093;SDS011;19964;42.060;24.700;2023-05-18T11:24:16;4.97;;;4.10;;
6093;SDS011;19964;42.060;24.700;2023-05-18T11:26:44;3.53;;;2.80;;
6093;SDS011;19964;42.060;24.700;2023-05-18T11:29:19;3.57;;;3.13;;
6093;SDS011;19964;42.060;24.700;2023-05-18T11:31:48;3.20;;;3.00;;
6093;SDS011;19964;42.060;24.700;2023-05-18T11:37:10;3.47;;;2.97;;
6093;SDS011;19964;42.060;24.700;2023-05-18T11:39:37;2.73;;;2.53;;
6093;SDS011;19964;42.060;24.700;2023-05-18T11:42:05;5.17;;;3.40;;
6093;SDS011;19964;42.060;24.700;2023-05-18T11:44:33;3.37;;;3.07;;
6093;SDS011;19964;42.060;24.700;2023-05-18T11:47:00;3.53;;;2.77;;
6093;SDS011;19964;42.060;24.700;2023-05-18T11:49:29;6.87;;;3.00;;
6093;SDS011;19964;42.060;24.700;2023-05-18T11:52:01;4.40;;;3.83;;
6093;SDS011;19964;42.060;24.700;2023-05-18T11:54:36;3.87;;;3.50;;
6093;SDS011;19964;42.060;24.700;2023-05-18T11:57:05;5.97;;;3.60;;
6093;SDS011;19964;42.060;24.700;2023-05-18T11:59:33;6.23;;;3.63;;
6093;SDS011;19964;42.060;24.700;2023-05-18T12:02:03;3.30;;;2.97;;
6093;SDS011;19964;42.060;24.700;2023-05-18T12:04:30;4.30;;;3.70;;
6093;SDS011;19964;42.060;24.700;2023-05-18T12:06:58;5.60;;;3.60;;
6093;SDS011;19964;42.060;24.700;2023-05-18T12:09:25;6.37;;;3.63;;
6093;SDS011;19964;42.060;24.700;2023-05-18T12:11:57;4.40;;;3.50;;
6093;SDS011;19964;42.060;24.700;2023-05-18T12:14:23;3.73;;;3.20;;
6093;SDS011;19964;42.060;24.700;2023-05-18T12:16:51;7.80;;;3.90;;
6093;SDS011;19964;42.060;24.700;2023-05-18T12:19:19;4.27;;;3.80;;
6093;SDS011;19964;42.060;24.700;2023-05-18T12:21:47;4.03;;;3.53;;
6093;SDS011;19964;42.060;24.700;2023-05-18T12:24:14;7.20;;;3.53;;
6093;SDS011;19964;42.060;24.700;2023-05-18T12:26:41;5.17;;;3.83;;
6093;SDS011;19964;42.060;24.700;2023-05-18T12:29:11;4.87;;;4.33;;
6093;SDS011;19964;42.060;24.700;2023-05-18T12:31:44;4.50;;;4.10;;
6093;SDS011;19964;42.060;24.700;2023-05-18T12:34:13;5.63;;;4.40;;
6093;SDS011;19964;42.060;24.700;2023-05-18T12:36:41;6.93;;;4.87;;
6093;SDS011;19964;42.060;24.700;2023-05-18T12:39:16;7.43;;;5.70;;
6093;SDS011;19964;42.060;24.700;2023-05-18T12:41:43;6.03;;;5.40;;
6093;SDS011;19964;42.060;24.700;2023-05-18T12:44:09;6.70;;;6.10;;
6093;SDS011;19964;42.060;24.700;2023-05-18T12:46:38;9.43;;;5.83;;
6093;SDS011;19964;42.060;24.700;2023-05-18T12:49:06;9.93;;;6.03;;
6093;SDS011;19964;42.060;24.700;2023-05-18T12:51:33;9.97;;;6.57;;
6093;SDS011;19964;42.060;24.700;2023-05-18T12:54:00;6.43;;;5.83;;
6093;SDS011;19964;42.060;24.700;2023-05-18T12:59:17;12.47;;;7.90;;
6093;SDS011;19964;42.060;24.700;2023-05-18T13:01:44;11.93;;;8.87;;
6093;SDS011;19964;42.060;24.700;2023-05-18T13:04:11;8.97;;;7.97;;
6093;SDS011;19964;42.060;24.700;2023-05-18T13:06:38;10.13;;;8.73;;
6093;SDS011;19964;42.060;24.700;2023-05-18T13:09:06;9.87;;;8.87;;
6093;SDS011;19964;42.060;24.700;2023-05-18T13:11:34;11.33;;;8.83;;
6093;SDS011;19964;42.060;24.700;2023-05-18T13:14:01;13.50;;;8.90;;
6093;SDS011;19964;42.060;24.700;2023-05-18T13:16:31;16.10;;;9.97;;
6093;SDS011;19964;42.060;24.700;2023-05-18T13:19:00;13.03;;;10.00;;
6093;SDS011;19964;42.060;24.700;2023-05-18T13:21:28;10.43;;;9.40;;
6093;SDS011;19964;42.060;24.700;2023-05-18T13:23:55;10.17;;;8.93;;
6093;SDS011;19964;42.060;24.700;2023-05-18T13:26:22;13.53;;;8.23;;
6093;SDS011;19964;42.060;24.700;2023-05-18T13:28:51;9.83;;;7.87;;
6093;SDS011;19964;42.060;24.700;2023-05-18T13:31:19;14.53;;;8.10;;
6093;SDS011;19964;42.060;24.700;2023-05-18T13:33:47;9.97;;;7.67;;
6093;SDS011;19964;42.060;24.700;2023-05-18T13:36:15;9.73;;;8.10;;
6093;SDS011;19964;42.060;24.700;2023-05-18T13:38:43;9.17;;;7.53;;
6093;SDS011;19964;42.060;24.700;2023-05-18T13:41:10;11.70;;;6.83;;
6093;SDS011;19964;42.060;24.700;2023-05-18T13:43:39;10.20;;;6.87;;
6093;SDS011;19964;42.060;24.700;2023-05-18T13:46:06;8.17;;;6.60;;
6093;SDS011;19964;42.060;24.700;2023-05-18T13:48:33;6.93;;;6.33;;
6093;SDS011;19964;42.060;24.700;2023-05-18T13:51:01;8.10;;;6.17;;
6093;SDS011;19964;42.060;24.700;2023-05-18T13:53:28;15.77;;;6.47;;
6093;SDS011;19964;42.060;24.700;2023-05-18T13:55:55;7.60;;;5.60;;
6093;SDS011;19964;42.060;24.700;2023-05-18T13:58:21;8.37;;;5.90;;
6093;SDS011;19964;42.060;24.700;2023-05-18T14:00:48;5.13;;;4.70;;
6093;SDS011;19964;42.060;24.700;2023-05-18T14:03:17;5.83;;;5.10;;
6093;SDS011;19964;42.060;24.700;2023-05-18T14:05:44;5.60;;;5.10;;
6093;SDS011;19964;42.060;24.700;2023-05-18T14:08:12;5.40;;;4.90;;
6093;SDS011;19964;42.060;24.700;2023-05-18T14:10:39;7.67;;;5.20;;
6093;SDS011;19964;42.060;24.700;2023-05-18T14:13:06;7.53;;;5.20;;
6093;SDS011;19964;42.060;24.700;2023-05-18T14:15:33;7.00;;;4.93;;
6093;SDS011;19964;42.060;24.700;2023-05-18T14:18:00;7.03;;;5.13;;
6093;SDS011;19964;42.060;24.700;2023-05-18T14:20:26;5.57;;;5.07;;
6093;SDS011;19964;42.060;24.700;2023-05-18T14:26:00;6.03;;;5.50;;
6093;SDS011;19964;42.060;24.700;2023-05-18T14:28:27;5.20;;;4.80;;
6093;SDS011;19964;42.060;24.700;2023-05-18T14:30:55;5.57;;;5.07;;
6093;SDS011;19964;42.060;24.700;2023-05-18T14:33:21;6.43;;;5.27;;
6093;SDS011;19964;42.060;24.700;2023-05-18T14:35:48;7.43;;;5.40;;
6093;SDS011;19964;42.060;24.700;2023-05-18T14:38:15;6.23;;;5.00;;
6093;SDS011;19964;42.060;24.700;2023-05-18T14:40:41;6.10;;;5.50;;
6093;SDS011;19964;42.060;24.700;2023-05-18T14:43:10;6.50;;;5.90;;
6093;SDS011;19964;42.060;24.700;2023-05-18T14:45:36;6.07;;;5.50;;
6093;SDS011;19964;42.060;24.700;2023-05-18T14:48:03;6.27;;;5.67;;
6093;SDS011;19964;42.060;24.700;2023-05-18T14:50:30;5.83;;;5.33;;
6093;SDS011;19964;42.060;24.700;2023-05-18T14:52:57;7.23;;;5.63;;
6093;SDS011;19964;42.060;24.700;2023-05-18T14:55:23;6.10;;;5.60;;
6093;SDS011;19964;42.060;24.700;2023-05-18T14:57:50;6.33;;;5.63;;
6093;SDS011;19964;42.060;24.700;2023-05-18T15:00:19;6.63;;;6.03;;
6093;SDS011;19964;42.060;24.700;2023-05-18T15:02:46;6.50;;;5.60;;
6093;SDS011;19964;42.060;24.700;2023-05-18T15:05:12;7.87;;;5.60;;